createdAt,value
2019-03-05T00:01:01.460Z,43.00
2019-03-05T00:03:08.185Z,44.38
2019-03-05T00:05:14.951Z,45.75
2019-03-05T00:07:21.613Z,46.53
2019-03-05T00:09:28.339Z,46.92
2019-03-05T00:11:35.018Z,47.67
2019-03-05T00:13:41.674Z,48.29
2019-03-05T00:15:49.608Z,49.07
2019-03-05T00:17:56.395Z,49.74
2019-03-05T00:20:03.229Z,50.27
2019-03-05T00:22:09.886Z,50.67
2019-03-05T00:24:59.757Z,51.09
2019-03-05T00:27:06.421Z,51.44
2019-03-05T00:29:32.343Z,51.56
2019-03-05T00:31:43.750Z,50.38
2019-03-05T00:34:22.952Z,49.63
2019-03-05T00:36:40.415Z,49.31
2019-03-05T00:39:09.076Z,49.47
2019-03-05T00:41:41.200Z,49.19
2019-03-05T00:44:12.946Z,48.97
2019-03-05T00:46:32.647Z,48.66
2019-03-05T00:48:55.487Z,48.55
2019-03-05T00:51:43.824Z,48.22
2019-03-05T00:54:24.602Z,48.49
2019-03-05T00:56:41.253Z,48.59
2019-03-05T00:59:03.644Z,48.96
2019-03-05T01:01:20.170Z,49.34
2019-03-05T01:03:45.933Z,49.90
2019-03-05T01:06:16.839Z,50.47
2019-03-05T01:08:23.973Z,51.12
2019-03-05T01:10:30.682Z,51.76
2019-03-05T01:12:37.428Z,52.21
2019-03-05T01:14:44.299Z,52.88
2019-03-05T01:16:51.029Z,52.99
2019-03-05T01:18:57.773Z,53.48
2019-03-05T01:21:04.710Z,53.42
2019-03-05T01:23:12.369Z,53.90
2019-03-05T01:25:35.406Z,54.33
2019-03-05T01:27:42.063Z,54.66
2019-03-05T01:29:48.711Z,54.99
2019-03-05T01:32:00.006Z,55.03
2019-03-05T01:34:15.163Z,55.05
2019-03-05T01:36:23.451Z,55.51
2019-03-05T01:38:31.759Z,55.93
2019-03-05T01:40:38.980Z,56.22
2019-03-05T01:42:45.626Z,56.21
2019-03-05T01:44:52.319Z,56.36
2019-03-05T01:46:59.039Z,56.70
2019-03-05T01:49:05.693Z,56.90
2019-03-05T01:51:12.376Z,56.93
2019-03-05T01:53:19.109Z,57.23
2019-03-05T01:55:25.772Z,57.31
2019-03-05T01:57:32.458Z,57.62
2019-03-05T01:59:39.109Z,57.94
2019-03-05T02:01:45.850Z,58.15
2019-03-05T02:03:52.530Z,58.12
2019-03-05T02:05:59.174Z,58.39
2019-03-05T02:08:05.883Z,58.97
2019-03-05T02:10:18.728Z,58.70
2019-03-05T02:12:25.487Z,58.75
2019-03-05T02:14:32.141Z,59.06
2019-03-05T02:16:38.834Z,59.50
2019-03-05T02:18:45.474Z,59.60
2019-03-05T02:20:52.199Z,59.16
2019-03-05T02:23:11.983Z,58.94
2019-03-05T02:25:57.423Z,58.72
2019-03-05T02:28:11.213Z,58.38
2019-03-05T02:30:47.338Z,58.12
2019-03-05T02:32:58.397Z,57.64
2019-03-05T02:35:12.013Z,57.62
2019-03-05T02:37:37.911Z,57.82
2019-03-05T02:39:54.937Z,57.46
2019-03-05T02:42:37.470Z,57.54
2019-03-05T02:45:12.410Z,57.29
2019-03-05T02:47:53.032Z,57.28
2019-03-05T02:50:50.323Z,56.99
2019-03-05T02:53:43.258Z,56.94
2019-03-05T02:56:02.315Z,56.78
2019-03-05T02:58:06.791Z,56.48
2019-03-05T03:00:15.089Z,56.50
2019-03-05T03:02:29.190Z,56.50
2019-03-05T03:04:37.481Z,56.09
2019-03-05T03:06:44.156Z,56.01
2019-03-05T03:08:52.268Z,56.15
2019-03-05T03:10:58.925Z,56.21
2019-03-05T03:13:05.799Z,55.92
2019-03-05T03:15:13.422Z,55.94
2019-03-05T03:17:20.068Z,55.82
2019-03-05T03:19:26.820Z,55.61
2019-03-05T03:21:33.557Z,55.32
2019-03-05T03:23:40.201Z,55.53
2019-03-05T03:25:46.869Z,54.99
2019-03-05T03:27:53.640Z,55.23
2019-03-05T03:30:00.695Z,54.94
2019-03-05T03:32:08.644Z,55.28
2019-03-05T03:34:15.301Z,55.29
2019-03-05T03:36:21.940Z,55.30
2019-03-05T03:38:28.636Z,55.16
2019-03-05T03:40:35.353Z,55.00
2019-03-05T03:42:42.006Z,55.03
2019-03-05T03:44:48.679Z,55.18
2019-03-05T03:46:55.394Z,55.16
2019-03-05T03:49:02.064Z,55.16
2019-03-05T03:51:08.801Z,54.99
2019-03-05T03:53:15.451Z,54.98
2019-03-05T03:55:22.327Z,54.96
2019-03-05T03:57:29.051Z,55.17
2019-03-05T03:59:35.768Z,54.75
2019-03-05T04:01:42.428Z,54.68
2019-03-05T04:03:49.174Z,54.53
2019-03-05T04:05:55.827Z,54.51
2019-03-05T04:08:02.551Z,54.43
2019-03-05T04:10:14.626Z,54.47
2019-03-05T04:12:21.282Z,54.59
2019-03-05T04:14:27.947Z,54.23
2019-03-05T04:16:34.612Z,54.10
2019-03-05T04:18:41.256Z,54.22
2019-03-05T04:20:49.767Z,54.28
2019-03-05T04:22:56.522Z,54.29
2019-03-05T04:25:04.770Z,54.07
2019-03-05T04:27:11.690Z,53.84
2019-03-05T04:29:18.365Z,53.91
2019-03-05T04:31:25.030Z,54.22
2019-03-05T04:33:31.753Z,54.17
2019-03-05T04:35:38.431Z,53.70
2019-03-05T04:37:45.102Z,53.49
2019-03-05T04:39:51.762Z,53.33
2019-03-05T04:41:59.439Z,53.77
2019-03-05T04:44:06.087Z,53.44
2019-03-05T04:46:30.406Z,53.56
2019-03-05T04:48:37.174Z,53.45
2019-03-05T04:50:52.160Z,53.37
2019-03-05T04:52:58.744Z,53.37
2019-03-05T04:55:06.926Z,53.47
2019-03-05T04:57:13.572Z,53.42
2019-03-05T04:59:20.226Z,53.29
2019-03-05T05:01:26.977Z,52.82
2019-03-05T05:03:33.631Z,53.00
2019-03-05T05:05:40.350Z,53.00
2019-03-05T05:07:47.031Z,53.22
2019-03-05T05:09:53.693Z,52.94
2019-03-05T05:12:00.343Z,52.86
2019-03-05T05:14:07.035Z,52.88
2019-03-05T05:16:13.692Z,52.73
2019-03-05T05:18:20.325Z,52.69
2019-03-05T05:20:27.153Z,52.61
2019-03-05T05:22:33.870Z,52.60
2019-03-05T05:24:40.523Z,53.06
2019-03-05T05:26:47.205Z,53.24
2019-03-05T05:28:53.863Z,53.33
2019-03-05T05:31:00.450Z,53.27
2019-03-05T05:33:08.441Z,53.33
2019-03-05T05:35:15.165Z,53.26
2019-03-05T05:37:21.888Z,53.29
2019-03-05T05:40:22.062Z,53.13
2019-03-05T05:42:28.720Z,53.18
2019-03-05T05:44:35.361Z,53.56
2019-03-05T05:46:42.111Z,53.47
2019-03-05T05:48:48.770Z,53.60
2019-03-05T05:50:55.419Z,53.63
2019-03-05T05:53:02.100Z,53.37
2019-03-05T05:55:08.933Z,53.01
2019-03-05T05:57:15.652Z,52.45
2019-03-05T05:59:22.345Z,52.04
2019-03-05T06:01:29.012Z,51.53
2019-03-05T06:03:37.818Z,51.13
2019-03-05T06:05:44.113Z,51.16
2019-03-05T06:07:50.828Z,51.45
2019-03-05T06:09:57.478Z,51.38
2019-03-05T06:12:04.152Z,50.99
2019-03-05T06:14:10.877Z,50.77
2019-03-05T06:16:17.537Z,50.70
2019-03-05T06:18:24.206Z,50.08
2019-03-05T06:20:30.927Z,48.68
2019-03-05T06:22:37.585Z,46.61
2019-03-05T06:24:44.278Z,42.87
2019-03-05T06:26:50.991Z,40.84
2019-03-05T06:28:57.718Z,38.36
2019-03-05T06:31:04.592Z,37.08
2019-03-05T06:33:11.248Z,36.37
2019-03-05T06:35:17.900Z,35.93
2019-03-05T06:37:24.641Z,39.53
2019-03-05T06:39:31.307Z,40.41
2019-03-05T06:41:37.974Z,43.30
2019-03-05T06:43:44.670Z,40.76
2019-03-05T06:45:51.354Z,36.34
2019-03-05T06:47:58.092Z,32.98
2019-03-05T06:50:06.844Z,31.31
2019-03-05T06:52:13.496Z,29.18
2019-03-05T06:54:20.149Z,29.83
2019-03-05T06:56:27.903Z,30.50
2019-03-05T06:58:34.563Z,28.62
2019-03-05T07:00:41.697Z,27.45
2019-03-05T07:02:48.380Z,26.03
2019-03-05T07:04:58.088Z,24.91
2019-03-05T07:07:04.828Z,23.87
2019-03-05T07:09:33.184Z,22.58
2019-03-05T07:11:46.667Z,21.60
2019-03-05T07:13:57.541Z,19.89
2019-03-05T07:16:17.361Z,19.94
2019-03-05T07:18:37.196Z,20.67
2019-03-05T07:21:17.848Z,20.26
2019-03-05T07:23:46.870Z,19.99
2019-03-05T07:25:53.524Z,20.47
2019-03-05T07:28:00.185Z,20.61
2019-03-05T07:30:11.216Z,23.85
2019-03-05T07:32:17.891Z,28.14
2019-03-05T07:34:26.207Z,31.39
2019-03-05T07:36:32.940Z,30.67
2019-03-05T07:38:39.628Z,30.79
2019-03-05T07:40:46.362Z,30.01
2019-03-05T07:42:53.023Z,31.98
2019-03-05T07:44:59.678Z,38.10
2019-03-05T07:47:06.417Z,40.74
2019-03-05T07:49:13.145Z,34.86
2019-03-05T07:51:19.853Z,31.09
2019-03-05T07:53:26.626Z,30.81
2019-03-05T07:55:33.287Z,29.30
2019-03-05T07:57:40.055Z,30.02
2019-03-05T07:59:46.718Z,30.58
2019-03-05T08:01:53.452Z,32.99
2019-03-05T08:04:00.128Z,35.87
2019-03-05T08:06:06.860Z,37.63
2019-03-05T08:09:07.446Z,39.28
2019-03-05T08:11:14.554Z,40.34
2019-03-05T08:13:28.266Z,42.51
2019-03-05T08:16:15.750Z,43.11
2019-03-05T08:18:22.398Z,44.02
2019-03-05T08:20:29.155Z,44.09
2019-03-05T08:22:35.849Z,44.06
2019-03-05T08:24:42.504Z,44.13
2019-03-05T08:26:49.165Z,43.87
2019-03-05T08:28:55.854Z,44.10
2019-03-05T08:31:02.588Z,44.11
2019-03-05T08:33:09.243Z,44.20
2019-03-05T08:35:15.935Z,43.94
2019-03-05T08:37:23.583Z,43.92
2019-03-05T08:39:30.308Z,44.23
2019-03-05T08:41:36.983Z,44.52
2019-03-05T08:43:43.640Z,44.35
2019-03-05T08:45:50.384Z,44.29
2019-03-05T08:47:57.062Z,44.13
2019-03-05T08:50:05.220Z,44.14
2019-03-05T08:52:11.870Z,44.82
2019-03-05T08:54:18.566Z,45.38
2019-03-05T08:56:25.205Z,45.38
2019-03-05T08:58:31.852Z,45.27
2019-03-05T09:00:38.521Z,45.66
2019-03-05T09:02:49.067Z,46.07
2019-03-05T09:04:54.582Z,46.25
2019-03-05T09:07:01.264Z,46.59
2019-03-05T09:09:11.108Z,46.97
2019-03-05T09:11:19.352Z,47.04
2019-03-05T09:13:32.573Z,46.87
2019-03-05T09:15:34.508Z,46.83
2019-03-05T09:17:41.178Z,46.45
2019-03-05T09:19:47.845Z,46.09
2019-03-05T09:21:54.571Z,46.06
2019-03-05T09:24:01.308Z,46.17
2019-03-05T09:26:09.270Z,46.27
2019-03-05T09:28:15.938Z,46.13
2019-03-05T09:30:24.157Z,46.41
2019-03-05T09:32:31.597Z,46.02
2019-03-05T09:34:38.322Z,45.74
2019-03-05T09:36:50.752Z,45.69
2019-03-05T09:38:53.378Z,46.15
2019-03-05T09:41:00.025Z,44.80
2019-03-05T09:43:06.675Z,44.47
2019-03-05T09:45:18.945Z,44.38
2019-03-05T09:47:25.600Z,44.11
2019-03-05T09:49:32.259Z,44.09
2019-03-05T09:51:38.973Z,44.71
2019-03-05T09:53:45.650Z,44.18
2019-03-05T09:55:52.330Z,44.02
2019-03-05T09:58:07.540Z,43.86
2019-03-05T10:00:12.064Z,44.31
2019-03-05T10:02:18.721Z,44.30
2019-03-05T10:04:25.401Z,44.92
2019-03-05T10:06:32.137Z,44.66
2019-03-05T10:08:38.857Z,44.55
2019-03-05T10:10:45.552Z,44.11
2019-03-05T10:12:52.305Z,43.76
2019-03-05T10:14:58.965Z,42.95
2019-03-05T10:17:05.734Z,43.08
2019-03-05T10:19:12.500Z,43.30
2019-03-05T10:21:19.221Z,43.81
2019-03-05T10:23:25.967Z,44.14
2019-03-05T10:25:32.694Z,43.98
2019-03-05T10:27:39.356Z,43.73
2019-03-05T10:29:46.024Z,43.31
2019-03-05T10:31:52.677Z,42.81
2019-03-05T10:33:59.340Z,42.59
2019-03-05T10:36:06.221Z,42.96
2019-03-05T10:38:13.569Z,43.23
2019-03-05T10:40:24.799Z,44.23
2019-03-05T10:42:31.828Z,44.38
2019-03-05T10:44:38.922Z,44.61
2019-03-05T10:46:46.574Z,44.86
2019-03-05T10:48:53.455Z,44.81
2019-03-05T10:51:00.214Z,45.43
2019-03-05T10:53:07.052Z,45.04
2019-03-05T10:55:25.702Z,45.20
2019-03-05T10:57:24.311Z,44.94
2019-03-05T10:59:30.959Z,45.43
2019-03-05T11:01:38.012Z,45.95
2019-03-05T11:03:44.737Z,46.33
2019-03-05T11:05:51.464Z,46.29
2019-03-05T11:07:58.143Z,46.77
2019-03-05T11:10:06.522Z,47.09
2019-03-05T11:12:13.151Z,47.39
2019-03-05T11:14:19.825Z,47.69
2019-03-05T11:16:30.702Z,48.10
2019-03-05T11:18:36.611Z,48.21
2019-03-05T11:20:43.368Z,48.18
2019-03-05T11:22:51.329Z,48.17
2019-03-05T11:24:58.968Z,48.12
2019-03-05T11:27:05.713Z,48.10
2019-03-05T11:29:12.386Z,48.02
2019-03-05T11:31:19.081Z,48.01
2019-03-05T11:33:26.854Z,47.68
2019-03-05T11:35:35.022Z,47.70
2019-03-05T11:37:41.678Z,47.49
2019-03-05T11:39:48.439Z,48.07
2019-03-05T11:41:55.085Z,48.43
2019-03-05T11:44:01.806Z,48.72
2019-03-05T11:46:13.104Z,48.70
2019-03-05T11:48:19.735Z,48.89
2019-03-05T11:50:26.988Z,48.87
2019-03-05T11:52:33.660Z,48.72
2019-03-05T11:54:40.379Z,49.30
2019-03-05T11:56:47.035Z,49.63
2019-03-05T11:58:53.728Z,50.53
2019-03-05T12:01:02.008Z,51.90
2019-03-05T12:03:08.671Z,53.81
2019-03-05T12:05:15.334Z,54.27
2019-03-05T12:07:21.993Z,55.03
2019-03-05T12:09:28.753Z,55.07
2019-03-05T12:11:35.537Z,55.90
2019-03-05T12:13:42.196Z,55.90
2019-03-05T12:15:48.844Z,55.62
2019-03-05T12:17:55.543Z,55.68
2019-03-05T12:20:02.184Z,55.45
2019-03-05T12:22:09.019Z,55.05
2019-03-05T12:24:15.779Z,55.13
2019-03-05T12:26:22.430Z,54.94
2019-03-05T12:28:29.146Z,54.60
2019-03-05T12:30:37.011Z,54.42
2019-03-05T12:32:43.766Z,54.29
2019-03-05T12:34:50.474Z,54.32
2019-03-05T12:36:57.149Z,54.34
2019-03-05T12:39:04.366Z,54.16
2019-03-05T12:41:12.546Z,53.73
2019-03-05T12:43:19.314Z,53.66
2019-03-05T12:45:26.273Z,53.28
2019-03-05T12:47:32.927Z,52.87
2019-03-05T12:49:39.617Z,52.50
2019-03-05T12:51:46.274Z,52.39
2019-03-05T12:53:52.927Z,53.04
2019-03-05T12:55:59.663Z,53.44
2019-03-05T12:58:06.316Z,53.36
2019-03-05T13:00:17.675Z,53.74
2019-03-05T13:02:24.367Z,54.24
2019-03-05T13:04:31.091Z,54.68
2019-03-05T13:06:37.747Z,54.83
2019-03-05T13:08:44.452Z,55.08
2019-03-05T13:10:51.113Z,56.74
2019-03-05T13:12:57.830Z,57.90
2019-03-05T13:15:05.923Z,59.08
2019-03-05T13:17:12.583Z,60.10
2019-03-05T13:19:19.224Z,60.37
2019-03-05T13:21:25.978Z,60.90
2019-03-05T13:23:32.637Z,61.67
2019-03-05T13:25:39.279Z,62.12
2019-03-05T13:27:46.141Z,62.77
2019-03-05T13:29:52.797Z,62.80
2019-03-05T13:31:59.454Z,63.37
2019-03-05T13:34:06.128Z,63.80
2019-03-05T13:36:16.395Z,63.85
2019-03-05T13:38:23.298Z,63.58
2019-03-05T13:40:34.098Z,63.74
2019-03-05T13:42:39.643Z,63.89
2019-03-05T13:44:46.295Z,64.07
2019-03-05T13:46:52.990Z,63.65
2019-03-05T13:49:09.801Z,63.98
2019-03-05T13:51:37.350Z,63.36
2019-03-05T13:54:24.391Z,62.48
2019-03-05T13:56:44.120Z,62.58
2019-03-05T13:59:11.367Z,62.58
2019-03-05T14:01:19.353Z,62.63
2019-03-05T14:03:30.401Z,62.76
2019-03-05T14:05:59.007Z,62.78
2019-03-05T14:08:44.298Z,62.74
2019-03-05T14:10:51.269Z,62.04
2019-03-05T14:12:57.939Z,61.00
2019-03-05T14:15:06.398Z,60.62
2019-03-05T14:17:14.695Z,59.81
2019-03-05T14:19:21.413Z,59.93
2019-03-05T14:21:28.088Z,58.83
2019-03-05T14:23:34.763Z,58.01
2019-03-05T14:25:41.422Z,57.40
2019-03-05T14:27:48.113Z,56.48
2019-03-05T14:29:54.755Z,56.06
2019-03-05T14:32:01.494Z,55.96
2019-03-05T14:34:09.216Z,55.06
2019-03-05T14:36:15.866Z,55.04
2019-03-05T14:38:22.544Z,54.82
2019-03-05T14:40:31.335Z,53.89
2019-03-05T14:42:38.033Z,53.50
2019-03-05T14:44:44.682Z,53.61
2019-03-05T14:46:57.974Z,53.29
2019-03-05T14:49:04.696Z,53.28
2019-03-05T14:51:11.381Z,53.03
2019-03-05T14:53:18.044Z,52.62
2019-03-05T14:55:24.778Z,52.78
2019-03-05T14:57:31.507Z,53.01
2019-03-05T14:59:38.298Z,51.89
2019-03-05T15:01:45.190Z,51.70
2019-03-05T15:03:52.863Z,51.44
2019-03-05T15:05:59.526Z,50.73
2019-03-05T15:08:06.172Z,50.84
2019-03-05T15:10:12.857Z,50.63
2019-03-05T15:12:19.583Z,50.47
2019-03-05T15:14:26.226Z,49.96
2019-03-05T15:16:32.988Z,49.40
2019-03-05T15:18:39.683Z,49.22
2019-03-05T15:20:46.486Z,48.45
2019-03-05T15:22:53.200Z,48.52
2019-03-05T15:24:59.877Z,47.53
2019-03-05T15:27:06.596Z,47.57
2019-03-05T15:29:13.284Z,47.49
2019-03-05T15:31:19.962Z,47.52
2019-03-05T15:33:27.624Z,47.35
2019-03-05T15:35:34.313Z,47.26
2019-03-05T15:37:41.093Z,47.72
2019-03-05T15:39:47.761Z,47.82
2019-03-05T15:41:54.529Z,48.29
2019-03-05T15:44:01.273Z,48.23
2019-03-05T15:46:07.946Z,48.62
2019-03-05T15:48:14.617Z,48.94
2019-03-05T15:50:26.940Z,48.92
2019-03-05T15:52:33.681Z,48.95
2019-03-05T15:54:40.406Z,48.74
2019-03-05T15:56:47.064Z,49.06
2019-03-05T15:58:53.789Z,49.23
2019-03-05T16:01:00.446Z,49.01
2019-03-05T16:03:08.344Z,49.02
2019-03-05T16:05:16.620Z,49.36
2019-03-05T16:07:23.347Z,49.11
2019-03-05T16:09:35.110Z,49.55
2019-03-05T16:11:39.994Z,50.26
2019-03-05T16:13:46.644Z,50.51
2019-03-05T16:15:53.387Z,50.67
2019-03-05T16:18:01.332Z,50.66
2019-03-05T16:20:15.929Z,51.10
2019-03-05T16:22:24.379Z,51.45
2019-03-05T16:24:33.888Z,51.41
2019-03-05T16:26:39.832Z,50.94
2019-03-05T16:28:46.777Z,51.00
2019-03-05T16:30:59.016Z,50.74
2019-03-05T16:33:23.904Z,50.81
2019-03-05T16:35:30.454Z,50.54
2019-03-05T16:37:39.234Z,50.65
2019-03-05T16:40:00.707Z,50.57
2019-03-05T16:42:09.125Z,50.54
2019-03-05T16:44:27.615Z,50.45
2019-03-05T16:46:48.847Z,50.96
2019-03-05T16:48:59.862Z,51.49
2019-03-05T16:51:13.868Z,51.86
2019-03-05T16:53:22.140Z,52.65
2019-03-05T16:55:33.441Z,52.67
2019-03-05T16:57:42.452Z,54.09
2019-03-05T17:00:03.598Z,56.29
2019-03-05T17:02:12.626Z,57.71
2019-03-05T17:04:36.118Z,59.94
2019-03-05T17:06:56.445Z,61.05
2019-03-05T17:09:16.622Z,62.07
2019-03-05T17:11:25.117Z,61.99
2019-03-05T17:13:31.968Z,61.87
2019-03-05T17:15:39.399Z,62.20
2019-03-05T17:17:46.123Z,62.57
2019-03-05T17:19:52.781Z,63.21
2019-03-05T17:21:59.862Z,63.24
2019-03-05T17:24:06.910Z,62.46
2019-03-05T17:26:14.748Z,62.15
2019-03-05T17:28:21.588Z,61.83
2019-03-05T17:30:28.411Z,62.21
2019-03-05T17:32:36.472Z,62.26
2019-03-05T17:34:43.219Z,62.12
2019-03-05T17:36:50.034Z,61.72
2019-03-05T17:38:57.068Z,61.72
2019-03-05T17:41:03.814Z,61.72
2019-03-05T17:43:11.731Z,62.01
2019-03-05T17:45:25.207Z,61.93
2019-03-05T17:47:32.432Z,61.68
2019-03-05T17:49:41.772Z,61.66
2019-03-05T17:51:48.625Z,61.90
2019-03-05T17:53:55.473Z,61.82
2019-03-05T17:56:02.398Z,61.71
2019-03-05T17:58:09.357Z,61.39
2019-03-05T18:00:28.205Z,61.42
2019-03-05T18:02:35.030Z,61.63
2019-03-05T18:04:41.955Z,61.32
2019-03-05T18:06:48.724Z,61.13
2019-03-05T18:08:55.563Z,61.25
2019-03-05T18:11:02.218Z,61.14
2019-03-05T18:13:08.978Z,61.10
2019-03-05T18:15:17.429Z,61.00
2019-03-05T18:17:24.911Z,61.10
2019-03-05T18:19:31.896Z,61.50
2019-03-05T18:21:38.634Z,61.45
2019-03-05T18:23:45.439Z,61.46
2019-03-05T18:25:53.136Z,61.75
2019-03-05T18:27:59.962Z,61.69
2019-03-05T18:30:19.786Z,61.56
2019-03-05T18:32:26.788Z,61.44
2019-03-05T18:34:33.514Z,61.35
2019-03-05T18:36:40.169Z,61.57
2019-03-05T18:38:46.855Z,61.27
2019-03-05T18:40:54.699Z,61.35
2019-03-05T18:43:01.653Z,61.50
2019-03-05T18:45:14.088Z,61.39
2019-03-05T18:47:20.809Z,61.51
2019-03-05T18:49:27.836Z,61.62
2019-03-05T18:51:34.636Z,61.51
2019-03-05T18:53:41.417Z,61.64
2019-03-05T18:55:48.079Z,61.23
2019-03-05T18:57:55.020Z,61.01
2019-03-05T19:00:01.690Z,60.83
2019-03-05T19:02:09.874Z,60.45
2019-03-05T19:04:16.572Z,60.49
2019-03-05T19:06:23.701Z,60.29
2019-03-05T19:08:32.119Z,59.98
2019-03-05T19:10:38.806Z,59.92
2019-03-05T19:12:45.460Z,59.67
2019-03-05T19:14:52.118Z,59.56
2019-03-05T19:16:59.869Z,59.36
2019-03-05T19:19:06.516Z,59.59
2019-03-05T19:21:13.159Z,59.46
2019-03-05T19:23:20.257Z,59.68
2019-03-05T19:25:40.271Z,59.92
2019-03-05T19:27:47.216Z,60.02
2019-03-05T19:29:53.899Z,60.19
2019-03-05T19:32:00.565Z,60.00
2019-03-05T19:34:07.280Z,60.09
2019-03-05T19:36:14.042Z,60.28
2019-03-05T19:38:20.865Z,60.13
2019-03-05T19:40:37.113Z,60.18
2019-03-05T19:42:43.914Z,60.21
2019-03-05T19:44:50.647Z,60.17
2019-03-05T19:46:57.569Z,59.97
2019-03-05T19:49:04.249Z,59.81
2019-03-05T19:51:10.909Z,59.68
2019-03-05T19:53:17.567Z,59.59
2019-03-05T19:55:29.268Z,59.71
2019-03-05T19:57:35.930Z,59.49
2019-03-05T19:59:42.571Z,59.59
2019-03-05T20:01:49.340Z,59.47
2019-03-05T20:03:56.064Z,59.53
2019-03-05T20:06:03.206Z,59.53
2019-03-05T20:08:11.160Z,59.61
2019-03-05T20:10:31.112Z,59.49
2019-03-05T20:12:37.841Z,59.48
2019-03-05T20:14:44.670Z,59.45
2019-03-05T20:16:51.394Z,59.51
2019-03-05T20:18:58.121Z,59.21
2019-03-05T20:21:05.003Z,59.13
2019-03-05T20:23:11.848Z,59.50
2019-03-05T20:25:25.007Z,59.58
2019-03-05T20:27:32.028Z,59.66
2019-03-05T20:29:38.677Z,59.83
2019-03-05T20:31:45.706Z,59.77
2019-03-05T20:33:52.398Z,59.66
2019-03-05T20:35:59.251Z,59.41
2019-03-05T20:38:06.086Z,59.31
2019-03-05T20:40:20.087Z,59.36
2019-03-05T20:42:27.550Z,59.33
2019-03-05T20:44:34.403Z,59.59
2019-03-05T20:46:41.264Z,59.71
2019-03-05T20:48:48.096Z,60.20
2019-03-05T20:50:54.927Z,60.70
2019-03-05T20:53:01.670Z,61.07
2019-03-05T20:55:15.392Z,61.63
2019-03-05T20:57:22.154Z,62.05
2019-03-05T20:59:29.006Z,62.29
2019-03-05T21:01:36.731Z,62.64
2019-03-05T21:03:43.729Z,62.91
2019-03-05T21:05:52.118Z,63.15
2019-03-05T21:07:59.568Z,63.18
2019-03-05T21:10:09.399Z,63.41
2019-03-05T21:12:18.183Z,63.64
2019-03-05T21:14:24.849Z,63.76
2019-03-05T21:16:33.039Z,63.93
2019-03-05T21:18:39.731Z,64.68
2019-03-05T21:20:46.396Z,65.02
2019-03-05T21:22:53.323Z,65.26
2019-03-05T21:25:01.390Z,65.40
2019-03-05T21:27:08.149Z,65.51
2019-03-05T21:29:14.806Z,65.72
2019-03-05T21:31:22.482Z,65.82
2019-03-05T21:33:32.561Z,65.99
2019-03-05T21:35:39.333Z,66.33
2019-03-05T21:37:46.325Z,66.55
2019-03-05T21:39:53.054Z,66.70
2019-03-05T21:41:59.960Z,67.01
2019-03-05T21:44:06.644Z,67.17
2019-03-05T21:46:17.790Z,67.17
2019-03-05T21:48:26.042Z,67.29
2019-03-05T21:50:32.840Z,67.48
2019-03-05T21:52:39.585Z,67.58
2019-03-05T21:54:46.246Z,67.82
2019-03-05T21:56:52.925Z,67.99
2019-03-05T21:58:59.661Z,67.95
2019-03-05T22:01:06.420Z,68.33
2019-03-05T22:03:13.292Z,68.54
2019-03-05T22:05:19.940Z,68.66
2019-03-05T22:07:28.102Z,68.90
2019-03-05T22:09:34.995Z,69.07
2019-03-05T22:11:42.791Z,69.21
2019-03-05T22:13:49.508Z,69.41
2019-03-05T22:15:56.208Z,69.62
2019-03-05T22:18:02.933Z,69.75
2019-03-05T22:20:13.697Z,69.73
2019-03-05T22:22:20.452Z,70.01
2019-03-05T22:24:27.148Z,70.16
2019-03-05T22:26:33.875Z,70.11
2019-03-05T22:28:40.631Z,70.34
2019-03-05T22:30:47.378Z,70.31
2019-03-05T22:32:54.186Z,70.53
2019-03-05T22:35:01.193Z,70.58
2019-03-05T22:37:08.035Z,70.49
2019-03-05T22:39:14.706Z,70.69
2019-03-05T22:41:21.548Z,70.94
2019-03-05T22:43:28.204Z,70.94
2019-03-05T22:45:35.359Z,71.15
2019-03-05T22:47:42.063Z,71.19
2019-03-05T22:49:48.729Z,71.21
2019-03-05T22:51:55.651Z,71.41
2019-03-05T22:54:02.335Z,71.44
2019-03-05T22:56:08.987Z,71.49
2019-03-05T22:58:15.704Z,71.31
2019-03-05T23:00:44.620Z,71.57
2019-03-05T23:02:52.882Z,71.70
2019-03-05T23:04:59.708Z,71.52
2019-03-05T23:07:06.849Z,71.52
2019-03-05T23:09:15.454Z,71.81
2019-03-05T23:27:26.837Z,71.71
2019-03-05T23:29:35.135Z,72.03
2019-03-05T23:31:42.184Z,71.95
2019-03-05T23:33:51.398Z,72.15
2019-03-05T23:35:58.239Z,72.25
2019-03-05T23:38:04.991Z,72.21
2019-03-05T23:40:13.984Z,72.29
2019-03-05T23:42:22.040Z,72.16
2019-03-05T23:44:28.800Z,72.17
2019-03-05T23:46:35.565Z,72.38
2019-03-05T23:48:42.225Z,72.32
2019-03-05T23:50:48.872Z,72.33
2019-03-05T23:52:56.665Z,72.41
2019-03-05T23:55:03.488Z,72.48
2019-03-05T23:57:10.229Z,72.63
2019-03-05T23:59:16.981Z,72.58
